Time;durP1;ratioP1;P1;durP2;ratioP2;P2;SDS_P1;SDS_P2;PMS_P1;PMS_P2;Temp;Humidity;BMP_temperature;BMP_pressure;BME280_temperature;BME280_humidity;BME280_pressure;Samples;Min_cycle;Max_cycle;Signal;HPM_P1;HPM_P2
2022/03/07 00:00:21;;;;;;;7.53;1.88;;;;;;;12.68;79.60;100906.38;2104899;28;20032;-74
2022/03/07 00:01:44;;;;;;;4.88;1.63;;;;;;;12.55;79.46;100906.22;2113067;28;20116;-76
2022/03/07 00:03:07;;;;;;;4.97;1.90;;;;;;;12.43;79.89;100909.66;2113077;28;20043;-74
2022/03/07 00:04:29;;;;;;;8.73;2.10;;;;;;;12.35;80.12;100917.50;2113103;28;20066;-75
2022/03/07 00:05:51;;;;;;;7.07;3.30;;;;;;;12.29;80.28;100921.84;2112951;28;20054;-75
2022/03/07 00:07:13;;;;;;;10.15;3.10;;;;;;;12.28;80.40;100930.66;2104531;28;20048;-74
2022/03/07 00:08:35;;;;;;;4.22;1.80;;;;;;;12.34;80.50;100928.97;2107397;28;20069;-75
2022/03/07 00:09:57;;;;;;;10.57;3.50;;;;;;;12.41;80.41;100929.91;2112955;28;20447;-74
2022/03/07 00:11:20;;;;;;;7.00;2.78;;;;;;;12.49;80.13;100933.53;2104635;28;20077;-74
2022/03/07 00:12:43;;;;;;;9.68;3.15;;;;;;;12.57;79.88;100937.16;2102107;28;20096;-75
2022/03/07 00:14:05;;;;;;;4.82;2.13;;;;;;;12.63;79.79;100937.22;2110324;28;20068;-75
2022/03/07 00:15:27;;;;;;;7.57;2.90;;;;;;;12.65;79.38;100946.09;2104592;28;20052;-74
2022/03/07 00:16:49;;;;;;;8.02;2.78;;;;;;;12.71;79.51;100939.94;2110009;28;20075;-75
2022/03/07 00:18:12;;;;;;;6.85;2.63;;;;;;;12.76;79.53;100943.53;2104426;28;20135;-75
2022/03/07 00:19:35;;;;;;;7.05;2.42;;;;;;;12.65;79.23;100937.25;2100905;28;20086;-76
2022/03/07 00:20:57;;;;;;;10.50;2.28;;;;;;;12.54;79.26;100937.13;2093681;28;20052;-75
2022/03/07 00:22:20;;;;;;;8.68;1.98;;;;;;;12.38;79.17;100941.38;2099469;28;20056;-75
2022/03/07 00:23:42;;;;;;;7.68;2.35;;;;;;;12.25;79.52;100941.22;2101761;28;20078;-74
2022/03/07 00:25:04;;;;;;;11.57;2.90;;;;;;;12.14;79.77;100950.81;2110207;28;20090;-75
2022/03/07 00:26:27;;;;;;;9.63;3.20;;;;;;;12.08;80.11;100948.94;2112805;28;20093;-74
2022/03/07 00:27:48;;;;;;;7.80;3.53;;;;;;;12.08;80.30;100951.59;2104433;28;20442;-74
2022/03/07 00:29:11;;;;;;;9.20;2.80;;;;;;;12.14;80.40;100938.44;2112989;28;20051;-74
2022/03/07 00:30:33;;;;;;;8.30;2.28;;;;;;;12.25;80.31;100943.88;2112865;28;20092;-74
2022/03/07 00:31:56;;;;;;;5.97;2.90;;;;;;;12.31;80.13;100936.88;2104382;28;20121;-74
2022/03/07 00:33:20;;;;;;;11.57;3.17;;;;;;;12.38;79.93;100935.19;2110162;28;20131;-74
2022/03/07 00:34:43;;;;;;;7.18;2.20;;;;;;;12.38;79.71;100932.56;2104573;28;20040;-75
2022/03/07 00:36:06;;;;;;;6.65;2.72;;;;;;;12.29;79.71;100928.03;2104407;28;20040;-74
2022/03/07 00:37:28;;;;;;;10.63;4.15;;;;;;;12.21;79.58;100928.81;2104567;28;20087;-74
2022/03/07 00:38:51;;;;;;;9.90;2.90;;;;;;;12.24;79.82;100929.75;2104630;28;20066;-74
2022/03/07 00:40:12;;;;;;;10.93;3.38;;;;;;;12.32;79.79;100940.44;2101879;28;20048;-74
2022/03/07 00:41:35;;;;;;;57.88;38.65;;;;;;;12.37;79.75;100934.31;2112686;28;20043;-75
2022/03/07 00:42:57;;;;;;;8.70;4.10;;;;;;;12.39;79.63;100934.34;2112809;28;20130;-74
2022/03/07 00:44:20;;;;;;;15.70;9.15;;;;;;;12.34;79.41;100934.25;2104362;28;20448;-74
2022/03/07 00:45:42;;;;;;;13.48;6.20;;;;;;;12.30;79.48;100935.09;2101691;28;20044;-74
2022/03/07 00:47:05;;;;;;;12.70;3.78;;;;;;;12.24;79.51;100929.75;2110048;28;20039;-74
2022/03/07 00:48:29;;;;;;;7.35;2.42;;;;;;;12.22;79.62;100930.59;2104408;28;20183;-74
2022/03/07 00:49:51;;;;;;;5.97;2.38;;;;;;;12.14;79.55;100925.19;2119038;27;20058;-75
2022/03/07 00:51:14;;;;;;;5.40;1.70;;;;;;;12.08;79.73;100929.56;2106846;28;20055;-74
2022/03/07 00:52:37;;;;;;;11.70;6.97;;;;;;;12.10;79.78;100933.09;2104231;28;20140;-74
2022/03/07 00:53:59;;;;;;;5.63;2.65;;;;;;;12.18;79.67;100939.38;2093430;28;20137;-75
2022/03/07 00:55:21;;;;;;;10.73;2.55;;;;;;;12.22;79.66;100934.13;2098997;28;20058;-74
2022/03/07 00:56:44;;;;;;;6.22;2.38;;;;;;;12.28;79.45;100928.91;2101624;28;20130;-74
2022/03/07 00:58:06;;;;;;;6.70;2.90;;;;;;;12.34;79.34;100934.25;2110189;28;20530;-74
2022/03/07 00:59:29;;;;;;;7.38;3.03;;;;;;;12.35;79.24;100930.75;2104203;28;20052;-74
2022/03/07 01:00:52;;;;;;;9.27;3.15;;;;;;;12.37;79.12;100929.00;2106945;28;20064;-75
2022/03/07 01:02:15;;;;;;;7.90;2.35;;;;;;;12.31;78.87;100928.94;2110135;28;20051;-74
2022/03/07 01:03:41;;;;;;;6.03;2.85;;;;;;;12.21;78.75;100932.34;2104251;28;20035;-75
2022/03/07 01:05:02;;;;;;;11.50;4.25;;;;;;;12.12;79.06;100931.38;2104484;28;20495;-75
2022/03/07 01:06:25;;;;;;;30.25;11.57;;;;;;;12.09;79.31;100931.31;2109813;28;20120;-74
2022/03/07 01:07:47;;;;;;;18.55;7.80;;;;;;;12.08;79.39;100930.41;2104092;28;20036;-75
2022/03/07 01:09:10;;;;;;;45.28;16.27;;;;;;;12.08;79.53;100929.56;2104325;28;20521;-75
2022/03/07 01:10:33;;;;;;;35.92;14.07;;;;;;;12.10;79.63;100920.75;2109996;28;20057;-74
2022/03/07 01:11:56;;;;;;;26.73;9.20;;;;;;;12.18;79.55;100928.78;2104204;28;20075;-74
2022/03/07 01:13:18;;;;;;;33.78;11.60;;;;;;;12.25;79.46;100922.69;2104100;28;20047;-75
2022/03/07 01:14:41;;;;;;;46.20;18.20;;;;;;;12.29;79.27;100928.03;2109944;28;20036;-75
2022/03/07 01:16:02;;;;;;;14.52;4.85;;;;;;;12.34;79.14;100922.78;2104036;28;20052;-74
2022/03/07 01:17:25;;;;;;;8.23;3.50;;;;;;;12.36;79.06;100931.63;2101354;28;20570;-75
2022/03/07 01:18:49;;;;;;;5.55;2.42;;;;;;;12.41;79.11;100921.97;2101599;28;20200;-75
2022/03/07 01:20:13;;;;;;;6.63;2.70;;;;;;;12.40;78.90;100920.22;2110226;28;20047;-74
2022/03/07 01:21:34;;;;;;;6.20;3.22;;;;;;;12.40;78.79;100925.53;2104202;28;20507;-75
2022/03/07 01:22:57;;;;;;;5.30;2.25;;;;;;;12.42;78.73;100920.22;2101211;28;20053;-75
2022/03/07 01:24:20;;;;;;;7.53;2.97;;;;;;;12.41;78.71;100921.97;2101509;28;20119;-74
2022/03/07 01:25:42;;;;;;;8.07;2.85;;;;;;;12.41;78.48;100915.78;2101196;28;20127;-75
2022/03/07 01:27:06;;;;;;;13.50;2.30;;;;;;;12.37;78.30;100915.78;2109766;28;20047;-75
2022/03/07 01:28:28;;;;;;;4.80;1.92;;;;;;;12.23;78.23;100914.72;2112473;28;20040;-75
2022/03/07 01:29:50;;;;;;;4.85;1.80;;;;;;;12.04;78.25;100917.16;2103992;28;20044;-74
2022/03/07 01:31:13;;;;;;;4.75;1.90;;;;;;;11.87;78.46;100923.13;2109460;28;20044;-75
2022/03/07 01:32:36;;;;;;;13.05;4.18;;;;;;;11.78;78.92;100919.47;2103953;28;20101;-74
2022/03/07 01:34:01;;;;;;;14.05;4.97;;;;;;;11.74;79.24;100922.94;2109796;28;20039;-75
2022/03/07 01:35:23;;;;;;;20.85;7.57;;;;;;;11.78;79.33;100928.28;2112492;28;20584;-75
2022/03/07 01:36:45;;;;;;;9.70;2.60;;;;;;;11.85;79.35;100930.16;2106587;28;20136;-75
2022/03/07 01:38:08;;;;;;;6.45;2.38;;;;;;;11.90;79.07;100922.25;2112234;28;20046;-76
2022/03/07 01:39:31;;;;;;;4.20;2.15;;;;;;;11.92;78.90;100921.44;2103772;28;20036;-75
2022/03/07 01:40:53;;;;;;;7.13;2.38;;;;;;;11.96;78.87;100923.22;2109829;28;20051;-75
2022/03/07 01:42:16;;;;;;;7.25;3.17;;;;;;;12.00;78.75;100918.88;2112209;28;20044;-75
2022/03/07 01:43:38;;;;;;;6.88;2.75;;;;;;;11.91;78.50;100919.66;2103818;28;20389;-75
2022/03/07 01:45:09;;;;;;;6.43;2.67;;;;;;;11.84;78.65;100931.00;2112209;28;20476;-75
2022/03/07 01:46:33;;;;;;;9.10;3.05;;;;;;;11.84;78.76;100928.38;2106367;28;20126;-75
2022/03/07 01:47:54;;;;;;;6.32;2.95;;;;;;;11.88;78.76;100930.16;2109722;28;20395;-75
2022/03/07 01:49:20;;;;;;;5.82;2.25;;;;;;;11.94;78.58;100919.69;2103882;28;20036;-76
2022/03/07 01:50:43;;;;;;;11.10;8.05;;;;;;;11.94;78.49;100932.94;2112659;28;20039;-75
2022/03/07 01:52:05;;;;;;;11.93;4.40;;;;;;;11.93;78.62;100927.59;2095410;28;20122;-75
2022/03/07 01:53:28;;;;;;;7.20;2.78;;;;;;;11.91;78.57;100931.97;2099044;28;20079;-74
2022/03/07 01:54:50;;;;;;;6.20;2.92;;;;;;;11.80;78.58;100923.03;2101325;28;20150;-74
2022/03/07 01:56:13;;;;;;;2.75;1.38;;;;;;;11.68;78.64;100921.09;2100990;28;20062;-75
2022/03/07 01:57:35;;;;;;;42.35;28.23;;;;;;;11.58;78.79;100937.66;2109640;28;20154;-74
2022/03/07 01:58:58;;;;;;;47.22;33.30;;;;;;;11.55;79.04;100932.34;2097977;28;20048;-75
2022/03/07 02:00:22;;;;;;;43.15;33.08;;;;;;;11.62;78.98;100939.47;2101296;28;20510;-74
2022/03/07 02:01:45;;;;;;;35.92;26.83;;;;;;;11.66;78.82;100936.03;2101543;28;20094;-74
2022/03/07 02:03:08;;;;;;;36.40;26.48;;;;;;;11.70;78.77;100940.47;2101588;28;20131;-74
2022/03/07 02:04:41;;;;;;;25.20;18.55;;;;;;;11.70;78.53;100934.31;2111347;28;20103;-74
2022/03/07 02:06:06;;;;;;;36.95;23.10;;;;;;;11.63;78.70;100943.00;2104493;28;20096;-75
2022/03/07 02:07:28;;;;;;;47.78;35.40;;;;;;;11.65;78.64;100944.81;2103915;28;20495;-74
2022/03/07 02:08:52;;;;;;;21.52;15.40;;;;;;;11.72;78.62;100948.44;2092538;28;20493;-75
2022/03/07 02:10:21;;;;;;;11.27;4.93;;;;;;;11.77;78.50;100939.72;2101900;28;20044;-74
2022/03/07 02:11:43;;;;;;;11.95;4.97;;;;;;;11.77;78.29;100945.03;2109564;28;20069;-74
2022/03/07 02:13:14;;;;;;;11.23;4.47;;;;;;;11.81;78.14;100945.97;2103831;28;20075;-75
2022/03/07 02:14:38;;;;;;;7.93;2.40;;;;;;;11.81;78.03;100951.25;2104747;28;20095;-75
2022/03/07 02:16:01;;;;;;;5.55;3.00;;;;;;;11.79;78.01;100940.66;2100966;28;20508;-75
2022/03/07 02:17:25;;;;;;;8.20;3.92;;;;;;;11.76;77.92;100937.06;2101600;28;20659;-75
2022/03/07 02:18:48;;;;;;;;;;;;;;;11.76;77.93;100939.69;2112524;28;20042;-74
2022/03/07 02:20:19;;;;;;;13.18;5.28;;;;;;;11.75;77.93;100937.97;2104496;28;20070;-75
2022/03/07 02:21:44;;;;;;;6.43;3.38;;;;;;;11.75;77.95;100936.16;2101435;28;20429;-76
2022/03/07 02:23:12;;;;;;;9.35;4.82;;;;;;;11.73;77.92;100935.25;2102841;28;20596;-75
2022/03/07 02:24:34;;;;;;;6.85;2.53;;;;;;;11.66;77.73;100935.13;2103770;28;20032;-75
2022/03/07 02:26:01;;;;;;;4.90;2.55;;;;;;;11.57;77.87;100936.78;2104250;28;20055;-75
2022/03/07 02:27:23;;;;;;;5.28;2.45;;;;;;;11.46;77.98;100948.06;2101353;28;20040;-75
2022/03/07 02:28:48;;;;;;;27.52;10.38;;;;;;;11.34;78.21;100946.13;2103701;28;20052;-74
2022/03/07 02:30:13;;;;;;;38.17;17.58;;;;;;;11.32;78.56;100941.69;2104190;28;20043;-75
2022/03/07 02:31:37;;;;;;;20.38;8.57;;;;;;;11.35;78.59;100941.75;2103786;28;20074;-75
2022/03/07 02:33:04;;;;;;;18.70;8.80;;;;;;;11.39;78.63;100946.19;2102497;28;20071;-75
2022/03/07 02:34:26;;;;;;;26.20;8.68;;;;;;;11.39;78.59;100946.19;2103391;28;20147;-75
2022/03/07 02:35:49;;;;;;;11.63;5.88;;;;;;;11.37;78.49;100943.53;2109586;28;20050;-75
2022/03/07 02:37:13;;;;;;;7.50;3.65;;;;;;;11.39;78.50;100940.91;2103947;28;20052;-75
2022/03/07 02:38:41;;;;;;;7.25;3.08;;;;;;;11.40;78.36;100943.59;2104164;28;20032;-75
2022/03/07 02:40:04;;;;;;;16.02;7.03;;;;;;;11.41;78.27;100939.19;2103575;28;20044;-75
2022/03/07 02:41:26;;;;;;;16.30;7.45;;;;;;;11.44;78.21;100939.22;2101164;28;20068;-75
2022/03/07 02:42:49;;;;;;;12.88;4.97;;;;;;;11.45;78.07;100946.28;2103221;28;20140;-75
2022/03/07 02:44:11;;;;;;;11.82;5.03;;;;;;;11.43;78.07;100948.00;2103567;28;20434;-75
2022/03/07 02:45:34;;;;;;;7.93;3.55;;;;;;;11.31;78.00;100945.19;2103586;28;20048;-75
2022/03/07 02:46:57;;;;;;;5.60;2.10;;;;;;;11.21;78.28;100943.28;2106095;28;20052;-75
2022/03/07 02:48:19;;;;;;;7.25;2.15;;;;;;;11.10;78.48;100941.34;2101044;28;20055;-75
2022/03/07 02:49:41;;;;;;;9.40;2.83;;;;;;;11.03;78.83;100942.09;2095322;28;20098;-74
2022/03/07 02:51:05;;;;;;;14.32;6.00;;;;;;;10.99;78.93;100945.56;2107255;28;20108;-74
2022/03/07 02:52:27;;;;;;;12.02;5.05;;;;;;;11.00;79.07;100946.47;2106298;28;20047;-74
2022/03/07 02:53:51;;;;;;;9.63;3.63;;;;;;;11.02;79.14;100947.38;2103538;28;20384;-75
2022/03/07 02:55:12;;;;;;;23.45;7.95;;;;;;;11.06;79.12;100943.91;2109207;28;20122;-75
2022/03/07 02:56:36;;;;;;;20.67;6.00;;;;;;;11.11;79.09;100948.41;2103766;28;20056;-75
2022/03/07 02:57:57;;;;;;;8.30;3.55;;;;;;;11.12;78.68;100942.25;2109387;28;20047;-75
2022/03/07 02:59:19;;;;;;;15.57;4.82;;;;;;;11.10;78.62;100948.38;2106174;28;20048;-75
2022/03/07 03:00:41;;;;;;;29.88;8.68;;;;;;;11.06;78.50;100947.44;2111904;28;20031;-75
2022/03/07 03:02:04;;;;;;;26.17;8.82;;;;;;;11.00;78.72;100944.72;2106206;28;20048;-74
2022/03/07 03:03:27;;;;;;;11.27;3.50;;;;;;;11.06;78.63;100955.38;2112000;28;20140;-74
2022/03/07 03:04:50;;;;;;;10.52;3.65;;;;;;;11.10;78.76;100949.25;2111944;28;20040;-75
2022/03/07 03:06:12;;;;;;;6.57;3.10;;;;;;;11.13;78.43;100946.69;2111941;28;20043;-75
2022/03/07 03:07:35;;;;;;;8.05;2.70;;;;;;;11.18;78.30;100947.63;2106027;28;20044;-75
2022/03/07 03:08:59;;;;;;;6.30;2.60;;;;;;;11.18;77.88;100955.56;2109454;28;20120;-75
2022/03/07 03:10:22;;;;;;;10.70;3.92;;;;;;;11.17;77.91;100951.13;2111921;28;20047;-76
2022/03/07 03:11:44;;;;;;;8.43;3.00;;;;;;;11.17;77.87;100951.13;2111969;28;20046;-75
2022/03/07 03:13:07;;;;;;;8.80;2.95;;;;;;;11.20;77.67;100952.97;2103386;28;20052;-75
2022/03/07 03:14:30;;;;;;;8.02;2.88;;;;;;;11.22;77.47;100950.34;2100765;28;20065;-75
2022/03/07 03:15:53;;;;;;;8.93;3.08;;;;;;;11.24;77.42;100954.78;2100782;28;20052;-74
2022/03/07 03:17:16;;;;;;;12.50;2.55;;;;;;;11.24;77.30;100952.13;2109225;28;20039;-74
2022/03/07 03:18:39;;;;;;;8.02;3.22;;;;;;;11.24;77.28;100949.47;2112212;28;20047;-75
2022/03/07 03:20:01;;;;;;;10.20;5.78;;;;;;;11.22;77.13;100953.00;2103472;28;20123;-75
2022/03/07 03:21:24;;;;;;;11.77;7.63;;;;;;;11.19;77.31;100954.72;2106014;28;20044;-74
2022/03/07 03:22:45;;;;;;;9.88;4.97;;;;;;;11.20;77.27;100955.59;2103244;28;20093;-74
2022/03/07 03:24:10;;;;;;;8.43;4.65;;;;;;;11.19;77.40;100959.09;2103266;28;20521;-75
2022/03/07 03:25:31;;;;;;;9.27;3.47;;;;;;;11.16;77.60;100953.75;2109373;28;20119;-74
2022/03/07 03:26:54;;;;;;;15.55;10.05;;;;;;;11.16;77.64;100965.22;2095016;28;20076;-74
2022/03/07 03:28:16;;;;;;;43.92;33.38;;;;;;;11.11;77.97;100961.63;2100832;28;20468;-74
2022/03/07 03:29:39;;;;;;;16.90;10.48;;;;;;;11.07;78.10;100954.50;2103285;28;20048;-75
2022/03/07 03:31:01;;;;;;;13.13;7.90;;;;;;;11.11;78.10;100966.00;2109202;28;20149;-75
2022/03/07 03:32:24;;;;;;;40.25;16.38;;;;;;;11.13;78.02;100964.28;2103248;28;20106;-74
2022/03/07 03:33:46;;;;;;;11.73;4.97;;;;;;;11.16;77.94;100961.69;2100786;28;20036;-74
2022/03/07 03:35:08;;;;;;;8.93;4.00;;;;;;;11.17;77.74;100961.72;2105894;28;20569;-75
2022/03/07 03:36:31;;;;;;;10.35;4.88;;;;;;;11.17;77.87;100961.72;2117320;28;20035;-74
2022/03/07 03:37:53;;;;;;;8.18;4.25;;;;;;;11.19;77.76;100965.28;2105940;28;20048;-75
2022/03/07 03:39:16;;;;;;;8.65;4.03;;;;;;;11.22;77.65;100964.44;2109061;28;20047;-74
2022/03/07 03:40:39;;;;;;;10.23;4.10;;;;;;;11.19;77.36;100969.66;2111775;28;20104;-75
2022/03/07 03:42:01;;;;;;;12.52;5.20;;;;;;;11.16;77.42;100967.84;2103342;28;20052;-74
2022/03/07 03:43:24;;;;;;;23.88;10.95;;;;;;;11.11;77.35;100969.53;2108896;28;20437;-74
2022/03/07 03:44:45;;;;;;;13.10;6.28;;;;;;;11.10;77.34;100973.03;2103282;28;20430;-74
2022/03/07 03:46:08;;;;;;;10.52;4.53;;;;;;;11.12;77.44;100975.72;2108800;28;20051;-74
2022/03/07 03:47:30;;;;;;;18.85;7.68;;;;;;;11.11;77.36;100969.53;2111801;28;20043;-74
2022/03/07 03:48:52;;;;;;;8.73;3.40;;;;;;;11.09;77.53;100978.31;2111656;28;20051;-74
2022/03/07 03:50:15;;;;;;;4.70;2.30;;;;;;;10.97;77.39;100973.69;2103297;28;20064;-74
2022/03/07 03:51:38;;;;;;;16.42;5.85;;;;;;;10.82;77.76;100980.47;2109386;28;20040;-74
2022/03/07 03:53:00;;;;;;;12.02;4.55;;;;;;;10.75;78.02;100977.72;2111581;28;20100;-74
2022/03/07 03:54:23;;;;;;;11.10;3.15;;;;;;;10.78;78.26;100974.22;2105818;28;20051;-74
2022/03/07 03:55:46;;;;;;;11.23;4.45;;;;;;;10.82;78.41;100977.84;2110824;28;20076;-74
2022/03/07 03:57:08;;;;;;;15.45;7.85;;;;;;;10.86;78.34;100975.28;2113328;28;20043;-75
2022/03/07 03:58:30;;;;;;;18.85;9.82;;;;;;;10.89;78.32;100975.34;2104588;28;20070;-74
2022/03/07 03:59:51;;;;;;;17.48;8.25;;;;;;;10.94;78.29;100983.34;2102233;28;20171;-74
2022/03/07 04:01:14;;;;;;;9.50;5.03;;;;;;;10.99;78.04;100976.38;2118805;27;20039;-74
2022/03/07 04:02:36;;;;;;;16.58;6.90;;;;;;;11.00;77.54;100980.78;2115774;28;20040;-74
2022/03/07 04:03:58;;;;;;;12.75;5.97;;;;;;;11.01;77.73;100985.22;2112955;28;20036;-75
2022/03/07 04:05:21;;;;;;;10.02;4.93;;;;;;;11.01;77.53;100986.09;2113263;28;20051;-74
2022/03/07 04:06:42;;;;;;;8.82;4.38;;;;;;;11.01;77.47;100978.19;2104690;28;20054;-74
2022/03/07 04:08:06;;;;;;;8.88;3.88;;;;;;;10.99;77.26;100977.25;2110139;28;20510;-74
2022/03/07 04:09:28;;;;;;;11.68;4.85;;;;;;;11.00;77.16;100973.75;2107232;28;20125;-74
2022/03/07 04:10:51;;;;;;;8.15;3.90;;;;;;;10.95;77.12;100970.16;2104697;28;20044;-74
2022/03/07 04:12:14;;;;;;;7.43;3.65;;;;;;;10.92;77.11;100964.81;2102020;28;20134;-75
2022/03/07 04:13:37;;;;;;;4.70;2.70;;;;;;;10.93;77.08;100969.22;2102057;28;20056;-74
2022/03/07 04:14:59;;;;;;;2.30;1.25;;;;;;;10.87;77.06;100974.41;2102058;28;20050;-74
2022/03/07 04:16:20;;;;;;;3.97;1.90;;;;;;;10.77;77.15;100975.97;2110407;28;20055;-74
2022/03/07 04:17:44;;;;;;;21.08;6.63;;;;;;;10.73;77.44;100982.09;2104241;28;20040;-74
2022/03/07 04:19:06;;;;;;;13.30;4.03;;;;;;;10.69;77.76;100984.66;2102352;28;20075;-74
2022/03/07 04:20:29;;;;;;;4.22;2.05;;;;;;;10.70;77.94;100982.00;2101956;28;20028;-74
2022/03/07 04:21:50;;;;;;;5.20;1.88;;;;;;;10.70;78.12;100979.38;2104477;28;20134;-74
2022/03/07 04:23:13;;;;;;;10.27;2.13;;;;;;;10.73;78.17;100976.81;2101662;28;20048;-74
2022/03/07 04:24:37;;;;;;;14.73;5.38;;;;;;;10.76;78.10;100979.47;2110411;28;20073;-75
2022/03/07 04:25:59;;;;;;;8.38;3.90;;;;;;;10.76;78.14;100981.25;2107472;28;20032;-74
2022/03/07 04:27:22;;;;;;;16.52;6.75;;;;;;;10.73;78.25;100981.19;2112903;28;20082;-75
2022/03/07 04:28:44;;;;;;;13.50;5.88;;;;;;;10.70;77.94;100986.41;2107265;28;20364;-74
2022/03/07 04:30:09;;;;;;;14.10;5.15;;;;;;;10.68;78.20;100985.50;2104669;28;20051;-74
2022/03/07 04:31:31;;;;;;;12.20;6.70;;;;;;;10.66;78.29;100980.19;2113186;28;20040;-74
2022/03/07 04:32:54;;;;;;;9.07;5.32;;;;;;;10.69;78.26;100984.66;2104389;28;20052;-74
2022/03/07 04:34:17;;;;;;;10.60;4.97;;;;;;;10.71;78.19;100981.16;2104562;28;20040;-74
2022/03/07 04:35:40;;;;;;;9.43;4.70;;;;;;;10.72;78.33;100984.69;2102027;28;20052;-74
2022/03/07 04:37:03;;;;;;;9.00;5.20;;;;;;;10.74;78.28;100997.06;2112744;28;20604;-74
2022/03/07 04:38:26;;;;;;;10.68;4.28;;;;;;;10.77;78.45;100990.94;2106988;28;20055;-74
2022/03/07 04:39:49;;;;;;;11.35;4.88;;;;;;;10.81;78.24;100991.91;2110286;28;20522;-74
2022/03/07 04:41:12;;;;;;;13.75;6.35;;;;;;;10.84;78.29;100992.81;2104389;28;20504;-74
2022/03/07 04:42:34;;;;;;;24.08;13.48;;;;;;;10.79;78.14;100994.50;2109917;28;20080;-74
2022/03/07 04:43:57;;;;;;;64.53;34.70;;;;;;;10.74;78.13;100998.81;2104337;28;20052;-74
2022/03/07 04:45:20;;;;;;;34.92;19.50;;;;;;;10.73;78.43;100989.09;2104494;28;20097;-74
2022/03/07 04:46:42;;;;;;;15.07;7.30;;;;;;;10.74;78.41;100991.78;2110139;28;20138;-74
2022/03/07 04:48:05;;;;;;;8.48;4.68;;;;;;;10.77;78.39;100993.56;2104356;28;20040;-74
2022/03/07 04:49:27;;;;;;;23.13;14.80;;;;;;;10.83;78.54;100995.47;2101848;28;20072;-74
2022/03/07 04:50:49;;;;;;;59.63;44.63;;;;;;;10.81;78.32;100999.81;2095899;28;20520;-74
2022/03/07 04:52:11;;;;;;;68.93;54.75;;;;;;;10.73;78.34;100999.66;2107574;28;20091;-75
2022/03/07 04:53:33;;;;;;;26.58;17.25;;;;;;;10.71;78.45;100998.75;2106915;28;20127;-75
2022/03/07 04:54:56;;;;;;;8.00;3.13;;;;;;;10.74;78.63;100996.19;2109929;28;20062;-74
2022/03/07 04:56:19;;;;;;;5.63;3.67;;;;;;;10.73;78.52;101003.19;2112725;28;20072;-74
2022/03/07 04:57:43;;;;;;;3.08;2.30;;;;;;;10.72;78.35;101005.81;2106912;28;20044;-74
2022/03/07 04:59:05;;;;;;;6.47;4.20;;;;;;;10.77;78.58;100998.84;2110293;28;20066;-73
2022/03/07 05:00:27;;;;;;;3.28;2.00;;;;;;;10.82;78.55;101001.59;2104095;28;20056;-74
2022/03/07 05:01:50;;;;;;;10.73;5.13;;;;;;;10.83;78.42;100998.97;2109932;28;20051;-74
2022/03/07 05:03:13;;;;;;;6.22;3.30;;;;;;;10.81;78.09;100998.06;2104074;28;20503;-74
2022/03/07 05:04:35;;;;;;;7.75;4.47;;;;;;;10.79;78.25;100994.50;2109753;28;20074;-75
2022/03/07 05:05:57;;;;;;;6.43;3.53;;;;;;;10.81;78.41;101002.47;2103654;28;20090;-74
2022/03/07 05:07:19;;;;;;;8.90;5.15;;;;;;;10.79;78.48;101002.44;2112487;28;20109;-74
2022/03/07 05:08:42;;;;;;;7.50;3.75;;;;;;;10.81;78.58;101013.03;2104072;28;20462;-74
2022/03/07 05:10:07;;;;;;;9.77;4.95;;;;;;;10.81;78.65;101003.34;2106776;28;20130;-74
2022/03/07 05:11:29;;;;;;;5.35;2.42;;;;;;;10.83;78.60;101001.59;2106817;28;20093;-74
2022/03/07 05:12:51;;;;;;;3.97;1.98;;;;;;;10.88;78.60;101009.63;2109956;28;20043;-74
2022/03/07 05:14:13;;;;;;;7.43;2.28;;;;;;;10.92;78.58;101008.81;2103885;28;20075;-75
2022/03/07 05:15:36;;;;;;;4.22;1.90;;;;;;;10.91;78.70;101004.38;2109579;28;20046;-74
2022/03/07 05:16:58;;;;;;;7.80;2.40;;;;;;;10.98;78.73;101012.47;2114828;28;20079;-74
2022/03/07 05:18:21;;;;;;;6.60;1.77;;;;;;;11.09;78.87;101020.59;2112500;28;20089;-74
2022/03/07 05:19:45;;;;;;;4.93;1.67;;;;;;;11.20;79.03;101016.38;2106522;28;20063;-74
2022/03/07 05:21:07;;;;;;;3.50;2.38;;;;;;;11.31;79.15;101013.91;2104102;28;20036;-74
2022/03/07 05:22:29;;;;;;;3.17;1.30;;;;;;;11.41;79.54;101019.38;2112431;28;20044;-74
2022/03/07 05:23:52;;;;;;;2.47;1.38;;;;;;;11.52;79.77;101027.47;2103979;28;20043;-75
2022/03/07 05:25:17;;;;;;;3.03;1.30;;;;;;;11.69;80.03;101023.31;2109803;28;20043;-74
2022/03/07 05:26:40;;;;;;;2.00;1.13;;;;;;;11.78;80.35;101019.97;2104288;28;20131;-74
2022/03/07 05:28:02;;;;;;;2.80;0.90;;;;;;;11.86;80.53;101019.22;2104011;28;20055;-74
2022/03/07 05:29:25;;;;;;;2.88;1.15;;;;;;;11.91;80.56;101025.47;2101517;28;20439;-74
2022/03/07 05:30:48;;;;;;;3.85;1.73;;;;;;;11.97;80.52;101014.97;2101493;28;20515;-74
2022/03/07 05:32:10;;;;;;;4.97;1.38;;;;;;;12.06;80.60;101014.22;2109740;28;20562;-74
2022/03/07 05:33:33;;;;;;;3.13;1.30;;;;;;;12.12;80.76;101016.94;2103858;28;20535;-74
2022/03/07 05:34:55;;;;;;;2.17;1.17;;;;;;;12.17;80.89;101017.88;2101180;28;20135;-74
2022/03/07 05:36:18;;;;;;;4.55;1.33;;;;;;;12.21;81.07;101021.44;2101177;28;20135;-74
2022/03/07 05:37:40;;;;;;;2.20;1.25;;;;;;;12.22;81.25;101017.94;2101416;28;20507;-74
2022/03/07 05:39:04;;;;;;;2.78;1.02;;;;;;;12.19;81.16;101017.91;2112293;28;20518;-75
2022/03/07 05:40:28;;;;;;;3.85;0.90;;;;;;;12.22;81.16;101013.53;2106584;28;20448;-74
2022/03/07 05:41:51;;;;;;;5.97;1.40;;;;;;;12.27;81.36;101018.91;2110058;28;20051;-74
2022/03/07 05:43:13;;;;;;;5.32;1.67;;;;;;;12.38;81.58;101025.22;2120939;27;20103;-74
2022/03/07 05:44:35;;;;;;;6.45;1.60;;;;;;;12.43;81.81;101023.50;2106605;28;20426;-74
2022/03/07 05:45:58;;;;;;;6.13;1.58;;;;;;;12.44;81.98;101022.63;2101146;28;20452;-74
2022/03/07 05:47:19;;;;;;;3.78;1.77;;;;;;;12.42;82.23;101031.41;2103788;28;20040;-74
2022/03/07 05:48:42;;;;;;;4.32;1.73;;;;;;;12.37;82.10;101034.00;2109465;28;20036;-74
2022/03/07 05:50:04;;;;;;;3.88;1.50;;;;;;;12.35;82.00;101038.38;2104173;28;20535;-74
2022/03/07 05:51:27;;;;;;;3.83;1.30;;;;;;;12.32;82.06;101030.44;2101444;28;20039;-74
2022/03/07 05:52:50;;;;;;;4.68;1.48;;;;;;;12.32;82.01;101035.72;2101263;28;20075;-74
2022/03/07 05:54:12;;;;;;;5.88;1.85;;;;;;;12.31;82.02;101047.19;2101192;28;20086;-73
2022/03/07 05:55:36;;;;;;;2.83;1.25;;;;;;;12.29;81.95;101040.97;2109638;28;20039;-74
2022/03/07 05:56:59;;;;;;;5.32;1.55;;;;;;;12.22;81.61;101040.00;2103955;28;20047;-74
2022/03/07 05:58:22;;;;;;;7.97;3.05;;;;;;;12.16;81.48;101037.25;2112263;28;20065;-74
2022/03/07 05:59:43;;;;;;;6.40;3.22;;;;;;;12.12;81.49;101031.91;2103890;28;20084;-74
2022/03/07 06:01:06;;;;;;;6.57;2.80;;;;;;;12.11;81.63;101032.78;2109335;28;20086;-74
2022/03/07 06:02:29;;;;;;;4.55;2.30;;;;;;;12.10;81.84;101028.34;2103722;28;20051;-75
2022/03/07 06:03:51;;;;;;;3.55;2.03;;;;;;;12.15;81.88;101031.94;2100963;28;20047;-74
2022/03/07 06:05:13;;;;;;;6.45;2.47;;;;;;;12.20;81.76;101033.81;2101167;28;20048;-74
2022/03/07 06:06:36;;;;;;;3.53;1.52;;;;;;;12.24;81.60;101040.03;2103547;28;20070;-74
2022/03/07 06:08:00;;;;;;;5.63;2.10;;;;;;;12.27;81.46;101035.63;2109563;28;20524;-74
2022/03/07 06:09:22;;;;;;;4.90;2.22;;;;;;;12.28;81.21;101026.84;2103851;28;20048;-74
2022/03/07 06:10:45;;;;;;;4.45;1.75;;;;;;;12.29;81.29;101023.31;2106411;28;20130;-75
2022/03/07 06:12:09;;;;;;;4.50;1.67;;;;;;;12.27;81.32;101021.53;2103631;28;20055;-74
2022/03/07 06:13:31;;;;;;;3.00;1.00;;;;;;;12.24;81.18;101027.69;2109919;28;20048;-74
2022/03/07 06:14:54;;;;;;;2.67;1.48;;;;;;;12.21;81.08;101024.97;2103793;28;20082;-74
2022/03/07 06:16:17;;;;;;;2.95;1.30;;;;;;;12.20;80.93;101020.56;2109350;28;20043;-75
2022/03/07 06:17:49;;;;;;;9.63;3.55;;;;;;;12.25;80.89;101024.16;2102781;28;20117;-74
2022/03/07 06:19:12;;;;;;;5.38;2.72;;;;;;;12.28;81.05;101015.34;2112107;28;20043;-75
2022/03/07 06:20:35;;;;;;;3.25;1.42;;;;;;;12.35;81.03;101025.16;2095381;28;20055;-74
2022/03/07 06:21:57;;;;;;;3.50;1.35;;;;;;;12.40;81.13;101028.78;2098512;28;20044;-74
2022/03/07 06:23:20;;;;;;;2.92;1.27;;;;;;;12.44;81.05;101029.69;2101025;28;20577;-74